Caribbean Trader — V2MY — position and weather

sailwx.info

Track history (hours):
 
Tides and Currents Weather Stations Pressure Air Temp Water Temp Dewpoint Dewpoint Depression Visibility Wind Speed Wind Dir Waves Ship Positions

Caribbean Trader

Last reported at 2018-Feb-12 14:59 UTC. Time now 2018-Feb-24 22:12 UTC.
Position N 29°09' W 094°25'.
Warning: this ship's position is 12 days out of date.

Length 100 m; draft 6 m.

Type: Ship (hazmat cat A). MMSI: 304010886.

Date/timePositionNaut miles runAvg speedWind from/ knotsBaromVisibWave heightAir tempDewpointWater temp
2018-Feb-12 14:59N 29°09' W 094°25'3111.8
2018-Feb-12 12:21N 29°30' W 094°52'412.2
2018-Feb-12 12:00N 29°33' W 094°55'611.9
2018-Feb-12 11:30N 29°38' W 094°58'610.9
2018-Feb-12 10:56N 29°44' W 095°01'4 7.8
2018-Feb-12 10:26N 29°46' W 095°05'3 6.5
2018-Feb-12 09:56N 29°44' W 095°09'2 0.0
2018-Feb-10 07:12N 29°45' W 095°11'0 0.0
2018-Feb-10 00:10N 29°45' W 095°11'0 0.2
2018-Feb-10 00:00N 29°45' W 095°11'2 3.2
2018-Feb-09 23:28N 29°44' W 095°09'3 5.5
2018-Feb-09 22:59N 29°45' W 095°06'3 6.6
2018-Feb-09 22:34N 29°44' W 095°03'1211.1
2018-Feb-09 21:31N 29°34' W 094°55'  
Track history (hours):
 
Tides and Currents Weather Stations Pressure Air Temp Water Temp Dewpoint Dewpoint Depression Visibility Wind Speed Wind Dir Waves Ship Positions

Caribbean Trader

Last reported at 2018-Feb-12 14:59 UTC. Time now 2018-Feb-24 22:12 UTC.
Position N 29°09' W 094°25'.
Warning: this ship's position is 12 days out of date.

Length 100 m; draft 6 m.

Type: Ship (hazmat cat A). MMSI: 304010886.

Date/timePositionNaut miles runAvg speedWind from/ knotsBaromVisibWave heightAir tempDewpointWater temp
2018-Feb-12 14:59N 29°09' W 094°25'3111.8
2018-Feb-12 12:21N 29°30' W 094°52'412.2
2018-Feb-12 12:00N 29°33' W 094°55'611.9
2018-Feb-12 11:30N 29°38' W 094°58'610.9
2018-Feb-12 10:56N 29°44' W 095°01'4 7.8
2018-Feb-12 10:26N 29°46' W 095°05'3 6.5
2018-Feb-12 09:56N 29°44' W 095°09'2 0.0
2018-Feb-10 07:12N 29°45' W 095°11'0 0.0
2018-Feb-10 00:10N 29°45' W 095°11'0 0.2
2018-Feb-10 00:00N 29°45' W 095°11'2 3.2
2018-Feb-09 23:28N 29°44' W 095°09'3 5.5
2018-Feb-09 22:59N 29°45' W 095°06'3 6.6
2018-Feb-09 22:34N 29°44' W 095°03'1211.1
2018-Feb-09 21:31N 29°34' W 094°55'  

Dump ship's entire track history